Time;durP1;ratioP1;P1;durP2;ratioP2;P2;SDS_P1;SDS_P2;PMS_P1;PMS_P2;Temp;Humidity;BMP_temperature;BMP_pressure;BME280_temperature;BME280_humidity;BME280_pressure;Samples;Min_cycle;Max_cycle;Signal;HPM_P1;HPM_P2
2021/04/04 00:00:51;;;;;;;13.15;3.40;;;6.70;85.40;;;;;;5060341;28;20328;-80
2021/04/04 00:03:17;;;;;;;11.10;3.30;;;6.70;85.50;;;;;;5055669;28;20246;-80
2021/04/04 00:05:43;;;;;;;8.88;3.47;;;6.70;85.90;;;;;;5067599;28;20236;-81
2021/04/04 00:08:10;;;;;;;6.57;3.70;;;6.70;85.40;;;;;;5056585;28;20473;-80
2021/04/04 00:10:36;;;;;;;7.55;3.65;;;6.50;85.50;;;;;;5070388;28;20212;-80
2021/04/04 00:13:04;;;;;;;9.23;3.58;;;6.60;86.00;;;;;;5078588;28;20279;-82
2021/04/04 00:15:31;;;;;;;5.00;3.08;;;6.60;86.50;;;;;;5078271;28;20309;-81
2021/04/04 00:17:58;;;;;;;6.25;3.53;;;6.70;86.90;;;;;;5074484;28;20303;-82
2021/04/04 00:20:24;;;;;;;12.13;4.75;;;6.60;87.00;;;;;;5073938;28;20619;-82
2021/04/04 00:22:50;;;;;;;9.18;3.83;;;6.40;86.80;;;;;;5075504;28;20313;-81
2021/04/04 00:25:17;;;;;;;7.53;3.40;;;6.60;87.20;;;;;;5074552;28;20737;-81
2021/04/04 00:27:44;;;;;;;6.85;3.40;;;6.50;87.30;;;;;;5072978;28;20214;-82
2021/04/04 00:30:12;;;;;;;6.95;3.40;;;6.40;87.00;;;;;;5073774;28;20251;-81
2021/04/04 00:32:40;;;;;;;11.25;3.45;;;6.30;87.80;;;;;;5075542;28;20727;-81
2021/04/04 00:35:09;;;;;;;10.32;2.95;;;6.20;87.60;;;;;;5073502;28;20229;-83
2021/04/04 00:37:37;;;;;;;11.98;3.65;;;6.30;88.20;;;;;;5078178;28;20212;-80
2021/04/04 00:40:07;;;;;;;5.97;3.30;;;6.20;88.20;;;;;;5077880;28;20198;-83
2021/04/04 00:42:34;;;;;;;7.05;3.00;;;6.20;88.40;;;;;;5078813;28;20742;-79
2021/04/04 00:45:00;;;;;;;6.70;3.20;;;6.20;88.90;;;;;;5079934;28;20225;-79
2021/04/04 00:47:26;;;;;;;9.82;3.33;;;5.90;88.90;;;;;;5087712;28;20233;-80
2021/04/04 00:49:54;;;;;;;14.15;4.53;;;6.00;90.00;;;;;;5086667;28;20255;-82
2021/04/04 00:52:20;;;;;;;8.15;3.38;;;5.90;90.10;;;;;;5080537;28;20630;-81
2021/04/04 00:54:46;;;;;;;6.03;3.58;;;5.80;90.10;;;;;;5072042;28;20241;-81
2021/04/04 00:57:13;;;;;;;6.28;3.85;;;5.80;90.20;;;;;;5081070;28;20265;-81
2021/04/04 00:59:40;;;;;;;10.68;3.78;;;5.70;90.30;;;;;;5080820;28;20335;-82
2021/04/04 01:02:06;;;;;;;6.07;3.30;;;6.00;90.50;;;;;;5083092;28;20229;-80
2021/04/04 01:04:33;;;;;;;9.82;3.70;;;6.00;90.30;;;;;;5081969;28;20278;-80
2021/04/04 01:07:00;;;;;;;5.50;3.22;;;5.90;90.40;;;;;;5080607;28;20236;-80
2021/04/04 01:09:26;;;;;;;10.48;3.83;;;5.80;90.60;;;;;;5078570;28;20216;-80
2021/04/04 01:11:59;;;;;;;5.97;3.30;;;5.70;90.60;;;;;;5078719;28;20250;-80
2021/04/04 01:14:30;;;;;;;6.05;2.47;;;5.70;90.80;;;;;;5079218;28;20265;-81
2021/04/04 01:17:02;;;;;;;8.93;3.30;;;5.60;90.90;;;;;;5079004;28;20222;-81
2021/04/04 01:19:57;;;;;;;7.43;3.47;;;5.70;91.20;;;;;;5080345;28;20197;-81
2021/04/04 01:22:51;;;;;;;8.55;3.70;;;5.50;91.40;;;;;;5079565;28;20574;-81
2021/04/04 01:25:25;;;;;;;6.15;3.13;;;5.30;91.50;;;;;;5078283;28;20253;-80
2021/04/04 01:27:58;;;;;;;10.27;4.47;;;5.50;91.90;;;;;;5076801;28;20212;-82
2021/04/04 01:30:29;;;;;;;9.82;3.30;;;5.50;91.90;;;;;;5076646;28;20233;-82
2021/04/04 01:32:56;;;;;;;9.00;3.20;;;5.60;92.00;;;;;;5077250;28;20202;-81
2021/04/04 01:35:27;;;;;;;7.70;2.72;;;5.40;92.00;;;;;;5078224;28;20632;-81
2021/04/04 01:37:58;;;;;;;6.60;3.58;;;5.30;91.90;;;;;;5078962;28;20217;-81
2021/04/04 01:40:27;;;;;;;6.55;3.30;;;5.40;91.90;;;;;;5078762;28;20248;-81
2021/04/04 01:42:56;;;;;;;9.02;3.50;;;5.50;91.90;;;;;;5078928;28;20221;-81
2021/04/04 01:45:25;;;;;;;5.38;2.80;;;5.60;91.90;;;;;;5078863;28;20246;-81
2021/04/04 01:47:52;;;;;;;6.85;3.13;;;5.50;91.90;;;;;;5078719;28;20343;-81
2021/04/04 01:50:20;;;;;;;8.93;2.72;;;5.60;92.00;;;;;;5080290;28;20206;-81
2021/04/04 01:52:48;;;;;;;6.75;3.10;;;5.40;91.90;;;;;;5079188;28;20891;-81
2021/04/04 01:55:17;;;;;;;6.97;3.30;;;5.40;92.00;;;;;;5080515;28;20316;-82
2021/04/04 01:57:44;;;;;;;9.43;3.22;;;5.20;92.20;;;;;;5078529;28;20562;-82
2021/04/04 02:00:14;;;;;;;8.85;3.75;;;5.40;92.40;;;;;;5079731;28;20233;-80
2021/04/04 02:02:41;;;;;;;10.57;4.10;;;5.50;92.30;;;;;;5080494;28;20240;-80
2021/04/04 02:05:09;;;;;;;8.82;3.50;;;5.40;92.20;;;;;;5080837;28;20254;-81
2021/04/04 02:07:38;;;;;;;8.68;3.47;;;5.30;92.20;;;;;;5085225;28;20210;-81
2021/04/04 02:10:06;;;;;;;8.05;2.97;;;5.20;92.40;;;;;;5082781;28;20209;-81
2021/04/04 02:12:35;;;;;;;7.57;2.85;;;5.10;92.50;;;;;;5082392;28;20289;-81
2021/04/04 02:15:04;;;;;;;8.13;3.83;;;5.10;92.70;;;;;;5083888;28;20603;-79
2021/04/04 02:17:34;;;;;;;7.53;2.70;;;5.10;92.80;;;;;;5085638;28;20237;-82
2021/04/04 02:20:00;;;;;;;7.47;3.53;;;5.00;92.80;;;;;;5085244;28;20480;-80
2021/04/04 02:22:27;;;;;;;9.73;3.35;;;5.00;93.00;;;;;;5081753;28;20750;-81
2021/04/04 02:24:53;;;;;;;5.85;3.35;;;4.90;93.00;;;;;;5077510;28;20235;-80
2021/04/04 02:27:20;;;;;;;9.25;4.20;;;4.90;93.00;;;;;;5077686;28;20220;-80
2021/04/04 02:29:46;;;;;;;6.40;3.30;;;5.00;93.30;;;;;;5077921;28;20198;-80
2021/04/04 02:32:14;;;;;;;8.98;3.45;;;4.80;93.10;;;;;;5079445;28;20213;-80
2021/04/04 02:34:45;;;;;;;9.82;3.42;;;5.00;93.20;;;;;;5077970;28;20280;-80
2021/04/04 02:37:13;;;;;;;7.80;3.13;;;4.90;93.30;;;;;;5078370;28;20244;-80
2021/04/04 02:39:45;;;;;;;6.28;3.58;;;4.80;93.30;;;;;;5080449;28;20259;-81
2021/04/04 02:42:13;;;;;;;5.32;2.92;;;4.90;93.40;;;;;;5083379;28;20232;-81
2021/04/04 02:44:40;;;;;;;7.88;3.20;;;5.00;93.50;;;;;;5081596;28;20225;-81
2021/04/04 02:47:11;;;;;;;5.80;2.83;;;4.80;93.50;;;;;;5079552;28;20198;-82
2021/04/04 02:49:39;;;;;;;9.60;3.90;;;4.70;93.50;;;;;;5078400;28;20700;-82
2021/04/04 02:52:10;;;;;;;6.15;3.00;;;4.70;93.70;;;;;;5081700;28;20288;-80
2021/04/04 02:54:38;;;;;;;7.53;3.25;;;4.80;93.90;;;;;;5077544;28;20792;-83
2021/04/04 02:57:06;;;;;;;7.93;3.45;;;4.70;93.90;;;;;;5076995;28;20205;-80
2021/04/04 02:59:40;;;;;;;8.40;3.00;;;4.60;93.70;;;;;;5076690;28;20217;-81
2021/04/04 03:02:10;;;;;;;4.55;2.70;;;4.70;93.80;;;;;;5077315;28;20238;-79
2021/04/04 03:04:38;;;;;;;7.55;3.45;;;4.80;94.10;;;;;;5073924;28;20751;-80
2021/04/04 03:07:07;;;;;;;6.80;3.13;;;4.40;94.20;;;;;;5074794;28;20215;-80
2021/04/04 03:09:35;;;;;;;6.53;3.10;;;4.60;94.40;;;;;;5074387;28;20210;-80
2021/04/04 03:12:03;;;;;;;7.20;3.20;;;4.40;94.30;;;;;;5074686;28;20212;-83
2021/04/04 03:14:30;;;;;;;8.65;3.70;;;4.50;94.30;;;;;;5075708;28;20285;-81
2021/04/04 03:16:57;;;;;;;8.63;3.45;;;4.40;94.50;;;;;;5078285;28;20332;-81
2021/04/04 03:19:26;;;;;;;6.40;2.90;;;4.40;94.50;;;;;;5074382;28;20349;-80
2021/04/04 03:21:54;;;;;;;6.68;3.28;;;4.70;94.50;;;;;;5077252;28;20215;-82
2021/04/04 03:24:23;;;;;;;7.15;2.80;;;4.40;94.60;;;;;;5077638;28;20260;-81
2021/04/04 03:26:50;;;;;;;7.10;2.92;;;4.50;94.80;;;;;;5077847;28;20205;-81
2021/04/04 03:29:18;;;;;;;7.45;2.85;;;4.20;94.80;;;;;;5077994;28;20442;-81
2021/04/04 03:31:45;;;;;;;7.05;3.40;;;4.20;95.00;;;;;;5077821;28;20265;-81
2021/04/04 03:34:12;;;;;;;6.18;2.80;;;4.30;95.10;;;;;;5076885;28;20226;-82
2021/04/04 03:36:39;;;;;;;8.35;3.35;;;4.20;95.00;;;;;;5076436;28;20205;-80
2021/04/04 03:39:07;;;;;;;6.93;3.25;;;4.20;95.10;;;;;;5074644;28;20304;-81
2021/04/04 03:41:36;;;;;;;8.00;3.22;;;4.20;95.10;;;;;;5074989;28;20244;-81
2021/04/04 03:44:04;;;;;;;9.18;3.13;;;4.20;95.30;;;;;;5075419;28;20578;-81
2021/04/04 03:46:34;;;;;;;5.55;2.47;;;4.40;95.50;;;;;;5079573;28;20193;-81
2021/04/04 03:49:02;;;;;;;6.20;3.47;;;4.20;95.50;;;;;;5074731;28;20273;-81
2021/04/04 03:51:30;;;;;;;8.00;3.08;;;4.20;95.40;;;;;;5074201;28;20206;-80
2021/04/04 03:53:58;;;;;;;9.90;3.65;;;4.20;95.40;;;;;;5073385;28;20554;-81
2021/04/04 03:56:28;;;;;;;6.82;2.80;;;4.20;95.40;;;;;;5074381;28;20252;-81
2021/04/04 03:58:57;;;;;;;7.82;2.83;;;4.20;95.50;;;;;;5073808;28;20241;-80
2021/04/04 04:01:27;;;;;;;6.63;3.05;;;4.20;95.60;;;;;;5070774;28;20233;-80
2021/04/04 04:03:54;;;;;;;6.82;2.78;;;4.20;95.90;;;;;;5083613;28;20251;-81
2021/04/04 04:06:21;;;;;;;5.88;2.88;;;4.30;95.80;;;;;;5080251;28;20225;-79
2021/04/04 04:08:49;;;;;;;6.90;3.33;;;4.00;95.80;;;;;;5073986;28;20584;-79
2021/04/04 04:11:17;;;;;;;9.07;3.40;;;4.10;95.90;;;;;;5073899;28;20267;-80
2021/04/04 04:13:44;;;;;;;9.95;3.00;;;4.10;95.90;;;;;;5073667;28;20308;-80
2021/04/04 04:16:14;;;;;;;6.15;2.53;;;3.90;95.80;;;;;;5073085;28;20240;-81
2021/04/04 04:18:42;;;;;;;6.05;3.03;;;4.10;96.00;;;;;;5073776;28;20289;-80
2021/04/04 04:21:10;;;;;;;6.22;3.13;;;4.10;96.10;;;;;;5073168;28;20712;-81
2021/04/04 04:23:38;;;;;;;8.32;3.28;;;4.00;96.20;;;;;;5074108;28;20712;-81
2021/04/04 04:26:08;;;;;;;8.25;2.95;;;3.90;96.20;;;;;;5075971;28;20206;-81
2021/04/04 04:28:35;;;;;;;5.90;3.15;;;4.00;96.20;;;;;;5075867;28;20259;-80
2021/04/04 04:31:03;;;;;;;11.32;3.25;;;4.10;96.30;;;;;;5076445;28;20241;-80
2021/04/04 04:33:31;;;;;;;7.60;3.90;;;4.00;96.30;;;;;;5076110;28;20230;-80
2021/04/04 04:35:57;;;;;;;7.22;3.65;;;4.20;96.30;;;;;;5075956;28;20268;-80
2021/04/04 04:38:25;;;;;;;8.90;3.50;;;4.20;96.30;;;;;;5076520;28;20214;-82
2021/04/04 04:40:55;;;;;;;10.93;3.30;;;4.00;96.40;;;;;;5078644;28;20277;-83
2021/04/04 04:43:23;;;;;;;7.43;3.35;;;4.10;96.40;;;;;;5077849;28;20623;-82
2021/04/04 04:45:52;;;;;;;5.88;2.75;;;4.20;96.50;;;;;;5078382;28;20205;-82
2021/04/04 04:48:19;;;;;;;10.93;3.17;;;4.30;96.40;;;;;;5079694;28;20688;-81
2021/04/04 04:50:47;;;;;;;8.82;4.20;;;4.00;96.10;;;;;;5078648;28;20244;-82
2021/04/04 04:53:13;;;;;;;7.50;3.70;;;4.10;96.40;;;;;;5079918;28;20209;-82
2021/04/04 04:55:41;;;;;;;6.82;3.40;;;4.00;96.60;;;;;;5076498;28;20198;-82
2021/04/04 04:58:09;;;;;;;7.18;3.03;;;3.90;96.80;;;;;;5073526;28;20201;-81
2021/04/04 05:00:36;;;;;;;11.25;3.63;;;4.00;97.10;;;;;;5074196;28;20230;-82
2021/04/04 05:03:04;;;;;;;7.07;3.58;;;3.80;97.00;;;;;;5077669;28;20316;-82
2021/04/04 05:05:31;;;;;;;8.18;3.17;;;4.00;97.10;;;;;;5076926;28;20648;-81
2021/04/04 05:07:59;;;;;;;6.38;2.78;;;4.10;97.10;;;;;;5076080;28;20216;-81
2021/04/04 05:10:29;;;;;;;5.82;2.92;;;3.90;97.00;;;;;;5066501;28;20575;-81
2021/04/04 05:12:58;;;;;;;10.02;2.75;;;4.00;97.10;;;;;;5060374;28;20233;-81
2021/04/04 05:15:26;;;;;;;9.88;3.03;;;4.00;97.30;;;;;;5056952;28;20668;-81
2021/04/04 05:17:53;;;;;;;7.90;3.08;;;4.10;97.20;;;;;;5055984;28;20213;-81
2021/04/04 05:20:21;;;;;;;9.82;3.22;;;4.20;97.10;;;;;;5055558;28;20207;-81
2021/04/04 05:22:48;;;;;;;8.25;3.40;;;3.90;97.00;;;;;;5054676;28;20313;-82
2021/04/04 05:25:15;;;;;;;7.43;3.58;;;4.10;97.10;;;;;;5072977;28;20304;-82
2021/04/04 05:27:42;;;;;;;7.20;3.30;;;4.00;97.10;;;;;;5073809;28;20344;-82
2021/04/04 05:30:11;;;;;;;8.02;3.10;;;4.00;97.20;;;;;;5073330;28;20318;-82
2021/04/04 05:32:44;;;;;;;7.60;3.50;;;4.00;97.50;;;;;;5076275;28;20229;-82
2021/04/04 05:35:14;;;;;;;10.60;3.25;;;3.90;97.60;;;;;;5078689;28;20289;-82
2021/04/04 05:37:42;;;;;;;10.25;3.72;;;4.00;97.80;;;;;;5080176;28;20274;-82
2021/04/04 05:40:17;;;;;;;8.98;3.20;;;4.10;97.70;;;;;;5081598;28;20316;-82
2021/04/04 05:42:51;;;;;;;5.05;2.70;;;3.80;97.50;;;;;;5079153;28;20225;-82
2021/04/04 05:45:23;;;;;;;8.43;3.25;;;4.00;97.70;;;;;;5081099;28;20231;-83
2021/04/04 05:47:59;;;;;;;10.25;3.35;;;4.10;97.70;;;;;;5091350;28;20217;-83
2021/04/04 05:50:31;;;;;;;5.50;3.10;;;4.00;97.60;;;;;;5091354;28;20197;-82
2021/04/04 05:53:03;;;;;;;7.10;3.00;;;3.90;97.50;;;;;;5088563;28;20201;-82
2021/04/04 05:55:38;;;;;;;14.80;3.60;;;4.00;97.50;;;;;;5090561;22;20234;-86
2021/04/04 05:58:12;;;;;;;8.48;2.72;;;4.00;97.50;;;;;;5081829;28;20476;-88
2021/04/04 06:00:42;;;;;;;8.95;3.72;;;4.20;97.40;;;;;;5082709;28;20228;-85
2021/04/04 06:03:36;;;;;;;9.35;3.63;;;4.30;97.20;;;;;;5082396;28;20237;-86
2021/04/04 06:06:23;;;;;;;5.43;3.38;;;4.30;96.90;;;;;;5062159;28;20242;-85
2021/04/04 06:09:09;;;;;;;8.75;3.60;;;4.30;96.80;;;;;;5062064;28;20727;-83
2021/04/04 06:11:58;;;;;;;12.48;3.80;;;4.50;97.00;;;;;;5056316;28;20198;-85
2021/04/04 06:14:30;;;;;;;6.25;3.22;;;4.40;97.00;;;;;;5055166;28;20223;-85
2021/04/04 06:17:03;;;;;;;7.28;3.63;;;4.50;96.90;;;;;;5055438;28;20183;-85
2021/04/04 06:19:41;;;;;;;10.98;3.55;;;4.60;96.90;;;;;;5055089;28;20684;-85
2021/04/04 06:22:11;;;;;;;8.07;3.83;;;4.60;96.80;;;;;;5055383;28;20574;-84
2021/04/04 06:24:46;;;;;;;5.53;3.28;;;4.80;96.90;;;;;;5054627;28;20252;-83
2021/04/04 06:27:21;;;;;;;6.40;3.55;;;5.00;96.80;;;;;;5055196;28;20272;-86
2021/04/04 06:30:21;;;;;;;8.15;3.97;;;5.00;96.80;;;;;;5040131;28;20330;-85
2021/04/04 06:33:00;;;;;;;7.30;4.25;;;4.90;96.60;;;;;;5035145;28;20252;-84
2021/04/04 06:35:37;;;;;;;9.35;4.45;;;5.10;96.50;;;;;;5051091;28;20241;-85
2021/04/04 06:38:15;;;;;;;11.45;3.97;;;5.30;96.20;;;;;;5059636;28;20312;-85
2021/04/04 06:40:47;;;;;;;10.18;4.55;;;5.20;96.00;;;;;;5059750;28;20293;-86
2021/04/04 06:43:24;;;;;;;14.82;4.13;;;5.30;95.90;;;;;;5057556;28;20305;-85
2021/04/04 06:46:04;;;;;;;26.92;4.60;;;5.50;96.00;;;;;;5058660;28;20282;-83
2021/04/04 06:48:47;;;;;;;9.70;4.70;;;5.50;95.60;;;;;;5058469;28;20401;-84
2021/04/04 06:51:22;;;;;;;10.20;4.50;;;5.70;95.40;;;;;;5059109;28;20294;-85
2021/04/04 06:54:05;;;;;;;9.68;3.90;;;5.60;95.10;;;;;;5059998;28;20201;-85
2021/04/04 06:56:44;;;;;;;7.75;4.20;;;5.90;94.70;;;;;;5061961;28;20210;-82
2021/04/04 06:59:17;;;;;;;7.88;4.20;;;6.00;93.80;;;;;;5072560;28;20244;-84
2021/04/04 07:01:58;;;;;;;12.18;4.85;;;6.10;93.00;;;;;;5058794;28;20249;-84
2021/04/04 07:04:38;;;;;;;8.63;5.15;;;6.30;92.60;;;;;;5060414;28;20234;-85
2021/04/04 07:07:46;;;;;;;15.73;6.40;;;6.40;92.60;;;;;;5058763;28;20703;-81
2021/04/04 07:10:36;;;;;;;12.13;5.07;;;6.60;92.50;;;;;;5059547;28;20228;-85
2021/04/04 07:13:19;;;;;;;11.50;4.97;;;6.40;92.40;;;;;;5054625;28;20195;-85
2021/04/04 07:16:02;;;;;;;10.77;6.05;;;6.70;92.20;;;;;;5039297;28;20230;-84
2021/04/04 07:18:42;;;;;;;11.80;5.88;;;6.60;91.90;;;;;;5038625;28;20207;-84
2021/04/04 07:21:48;;;;;;;8.57;4.80;;;6.70;91.80;;;;;;5039442;28;20222;-83
2021/04/04 07:24:27;;;;;;;8.57;5.55;;;6.70;91.30;;;;;;5021198;28;20337;-82
2021/04/04 07:27:03;;;;;;;7.35;5.10;;;7.00;91.30;;;;;;5042221;28;20238;-85
2021/04/04 07:29:41;;;;;;;9.63;5.80;;;7.00;91.30;;;;;;5059380;28;20281;-85
2021/04/04 07:32:15;;;;;;;15.45;5.70;;;7.10;91.20;;;;;;5059751;28;20772;-84
2021/04/04 07:34:49;;;;;;;11.05;5.53;;;7.30;91.10;;;;;;5059792;28;20218;-85
2021/04/04 07:37:32;;;;;;;11.20;6.53;;;7.40;90.90;;;;;;5060040;28;20248;-86
2021/04/04 07:40:05;;;;;;;9.38;6.68;;;7.60;91.00;;;;;;5060555;28;20594;-87
2021/04/04 07:42:37;;;;;;;11.23;7.00;;;7.70;90.90;;;;;;5060350;28;20234;-88
2021/04/04 07:45:13;;;;;;;14.27;7.10;;;7.80;90.80;;;;;;5062441;28;20214;-85
2021/04/04 07:47:48;;;;;;;8.60;6.17;;;7.90;90.70;;;;;;5061363;28;20273;-86
2021/04/04 07:50:20;;;;;;;12.70;6.10;;;8.00;90.60;;;;;;5060746;28;20460;-86
2021/04/04 07:52:52;;;;;;;12.18;6.65;;;8.00;90.30;;;;;;5062563;28;20723;-85
2021/04/04 07:55:26;;;;;;;13.10;5.90;;;8.10;90.30;;;;;;5067291;28;20230;-85
2021/04/04 07:57:58;;;;;;;9.93;7.20;;;8.30;90.00;;;;;;5066147;28;20512;-85
2021/04/04 08:00:26;;;;;;;9.40;5.80;;;8.20;89.60;;;;;;5062672;28;20537;-84
2021/04/04 08:03:03;;;;;;;8.57;5.70;;;8.40;89.30;;;;;;5062734;28;20556;-83
2021/04/04 08:05:33;;;;;;;10.17;5.40;;;8.40;88.40;;;;;;5063337;28;20527;-87
2021/04/04 08:08:03;;;;;;;12.40;6.03;;;8.50;88.60;;;;;;5061800;28;20463;-85
2021/04/04 08:10:32;;;;;;;11.50;5.80;;;8.60;87.90;;;;;;5061640;28;20532;-87
2021/04/04 08:13:09;;;;;;;9.32;5.88;;;8.60;87.20;;;;;;5056652;28;20473;-83
2021/04/04 08:15:45;;;;;;;10.80;6.20;;;8.80;86.80;;;;;;5055318;28;20260;-85
2021/04/04 08:18:12;;;;;;;12.70;6.33;;;8.80;86.10;;;;;;5056791;28;20990;-85
2021/04/04 08:20:46;;;;;;;10.10;5.93;;;8.80;85.50;;;;;;5056221;28;20449;-86
2021/04/04 08:23:21;;;;;;;12.57;6.10;;;8.50;85.40;;;;;;5061839;28;20488;-82
2021/04/04 08:25:53;;;;;;;12.37;6.30;;;8.80;85.60;;;;;;5072734;28;20717;-82
2021/04/04 08:28:29;;;;;;;12.27;6.97;;;8.90;85.60;;;;;;5069921;28;20441;-85
2021/04/04 08:31:06;;;;;;;13.27;6.67;;;8.80;85.60;;;;;;5062089;28;20470;-83
2021/04/04 08:33:41;;;;;;;11.00;6.17;;;8.90;86.20;;;;;;5063201;28;20514;-85
2021/04/04 08:36:12;;;;;;;16.53;6.17;;;9.00;85.50;;;;;;5067554;28;20666;-84
2021/04/04 08:38:42;;;;;;;9.53;5.87;;;9.00;85.20;;;;;;5073564;28;20500;-85
2021/04/04 08:41:13;;;;;;;11.20;6.07;;;9.10;85.40;;;;;;5067931;28;20453;-84
2021/04/04 08:43:43;;;;;;;12.93;7.80;;;9.00;85.20;;;;;;5056273;28;20473;-85
2021/04/04 08:46:21;;;;;;;13.10;6.17;;;9.20;85.40;;;;;;5054057;28;20542;-85
2021/04/04 08:48:49;;;;;;;11.10;6.73;;;9.30;85.00;;;;;;5034398;28;20423;-86
2021/04/04 08:51:19;;;;;;;13.73;6.80;;;9.50;84.40;;;;;;5034781;28;20602;-86
2021/04/04 08:53:49;;;;;;;12.53;6.13;;;9.60;83.30;;;;;;5034542;28;20890;-87
2021/04/04 08:56:19;;;;;;;8.73;6.50;;;9.60;83.20;;;;;;5035008;28;20441;-82
2021/04/04 08:58:49;;;;;;;11.73;6.57;;;9.70;82.60;;;;;;5037092;28;20460;-85
2021/04/04 09:01:20;;;;;;;11.57;6.40;;;9.60;82.80;;;;;;5053537;28;20451;-86
2021/04/04 09:03:52;;;;;;;8.87;6.00;;;9.60;83.10;;;;;;5054069;28;20477;-86
2021/04/04 09:06:20;;;;;;;7.90;5.10;;;9.70;82.80;;;;;;5056764;28;20468;-84
2021/04/04 09:08:46;;;;;;;7.90;4.70;;;9.70;82.40;;;;;;5059982;28;20548;-86
2021/04/04 09:11:14;;;;;;;7.60;5.23;;;9.80;82.50;;;;;;5068567;28;20537;-85
2021/04/04 09:13:41;;;;;;;12.93;5.57;;;9.80;81.10;;;;;;5060538;28;20441;-86
2021/04/04 09:16:09;;;;;;;8.33;4.83;;;10.00;78.90;;;;;;5058645;28;20449;-85
2021/04/04 09:18:46;;;;;;;8.03;5.10;;;10.00;77.90;;;;;;5059315;28;20453;-85
2021/04/04 09:21:14;;;;;;;10.97;5.70;;;10.10;77.80;;;;;;5058941;28;20468;-86
2021/04/04 09:23:43;;;;;;;12.63;5.70;;;10.20;77.90;;;;;;5057110;28;20484;-85
2021/04/04 09:26:11;;;;;;;10.37;5.17;;;10.30;77.20;;;;;;5037830;28;20466;-86
2021/04/04 09:28:40;;;;;;;7.83;4.70;;;10.40;75.10;;;;;;5038642;28;20951;-85
2021/04/04 09:31:16;;;;;;;9.37;4.77;;;10.40;74.50;;;;;;5038685;28;20956;-87
2021/04/04 09:33:44;;;;;;;11.23;4.03;;;10.30;74.30;;;;;;5039439;28;20463;-86
2021/04/04 09:36:11;;;;;;;7.83;3.70;;;10.30;73.90;;;;;;5038533;28;20476;-82
2021/04/04 09:38:40;;;;;;;5.83;3.57;;;10.20;71.90;;;;;;5038649;28;20541;-85
2021/04/04 09:41:09;;;;;;;5.47;2.87;;;10.20;69.00;;;;;;5051309;28;20483;-85
2021/04/04 09:43:39;;;;;;;7.57;3.93;;;10.40;67.00;;;;;;5057381;28;20480;-84
2021/04/04 09:46:07;;;;;;;8.10;4.37;;;10.40;67.50;;;;;;5057606;28;20457;-85
2021/04/04 09:48:39;;;;;;;6.67;3.83;;;10.50;69.40;;;;;;5060300;28;20759;-86
2021/04/04 09:51:08;;;;;;;6.50;3.83;;;10.60;69.30;;;;;;5061750;28;20438;-84
2021/04/04 09:53:36;;;;;;;5.63;3.40;;;10.80;68.90;;;;;;5058821;28;20488;-86
2021/04/04 09:56:08;;;;;;;5.30;3.63;;;10.80;64.90;;;;;;5058107;28;20544;-86
2021/04/04 09:58:34;;;;;;;7.43;3.47;;;11.00;65.40;;;;;;5058901;28;20449;-85
2021/04/04 10:01:02;;;;;;;6.40;3.23;;;11.00;63.70;;;;;;5057002;28;20487;-82
2021/04/04 10:03:28;;;;;;;3.93;1.80;;;11.00;64.40;;;;;;5065614;28;20635;-86
2021/04/04 10:05:54;;;;;;;3.80;1.60;;;10.90;60.10;;;;;;5056979;28;20473;-85
2021/04/04 10:08:22;;;;;;;4.77;2.40;;;10.70;57.20;;;;;;5057453;28;20539;-85
2021/04/04 10:10:50;;;;;;;7.53;2.33;;;10.70;58.00;;;;;;5056832;28;20545;-83
2021/04/04 10:13:18;;;;;;;5.17;3.53;;;10.90;58.70;;;;;;5057707;28;20762;-86
2021/04/04 10:15:47;;;;;;;8.50;3.83;;;11.00;60.60;;;;;;5056885;28;20503;-85
2021/04/04 10:18:14;;;;;;;5.60;3.50;;;11.20;61.10;;;;;;5055600;28;20465;-82
2021/04/04 10:20:44;;;;;;;5.27;3.60;;;11.10;61.20;;;;;;5054997;28;20453;-85
2021/04/04 10:23:11;;;;;;;5.00;3.17;;;11.20;60.20;;;;;;5056637;28;20476;-85
2021/04/04 10:25:55;;;;;;;3.70;1.90;;;11.40;58.20;;;;;;5055482;28;21315;-84
2021/04/04 10:28:23;;;;;;;4.33;2.30;;;11.40;53.60;;;;;;5055954;28;20449;-84
2021/04/04 10:30:56;;;;;;;4.67;2.60;;;11.50;55.50;;;;;;5056041;28;21026;-86
2021/04/04 10:33:24;;;;;;;4.90;2.40;;;11.70;56.20;;;;;;5055479;28;20508;-85
2021/04/04 10:35:53;;;;;;;4.70;2.73;;;11.70;56.40;;;;;;5058186;28;20509;-83
2021/04/04 10:38:22;;;;;;;5.10;3.30;;;11.50;56.50;;;;;;5059026;28;20457;-85
2021/04/04 10:40:52;;;;;;;5.90;2.80;;;11.60;57.30;;;;;;5057609;28;20574;-86
2021/04/04 10:43:20;;;;;;;5.43;2.93;;;11.70;57.30;;;;;;5056961;28;20505;-83
2021/04/04 10:46:13;;;;;;;6.77;3.43;;;11.80;56.90;;;;;;5056216;28;20451;-83
2021/04/04 10:48:42;;;;;;;8.17;3.70;;;11.90;56.80;;;;;;5056808;28;20457;-84
2021/04/04 10:51:10;;;;;;;6.50;3.33;;;12.00;57.00;;;;;;5067684;28;20456;-84
2021/04/04 10:53:37;;;;;;;6.87;3.60;;;11.90;56.40;;;;;;5061022;28;20541;-83
2021/04/04 10:56:05;;;;;;;11.70;4.53;;;11.90;56.70;;;;;;5059127;28;20520;-85
2021/04/04 10:58:32;;;;;;;10.60;3.20;;;11.70;56.80;;;;;;5058782;28;20493;-85
2021/04/04 11:01:00;;;;;;;9.03;3.60;;;11.90;55.60;;;;;;5055658;28;20427;-85
2021/04/04 11:03:28;;;;;;;5.30;3.13;;;11.90;56.10;;;;;;5055516;28;20552;-85
2021/04/04 11:05:55;;;;;;;4.87;2.87;;;11.90;56.70;;;;;;5056293;28;20498;-84
2021/04/04 11:08:23;;;;;;;4.23;2.70;;;11.90;55.50;;;;;;5055597;28;20464;-85
2021/04/04 11:10:51;;;;;;;6.67;2.27;;;11.90;55.50;;;;;;5058678;28;20494;-84
2021/04/04 11:13:18;;;;;;;7.07;3.57;;;12.00;56.20;;;;;;5058621;28;20464;-85
2021/04/04 11:15:51;;;;;;;5.97;3.13;;;11.90;56.50;;;;;;5059170;28;20863;-86
2021/04/04 11:18:23;;;;;;;7.47;4.13;;;12.00;56.50;;;;;;5058625;28;20433;-86
2021/04/04 11:20:55;;;;;;;5.37;3.10;;;11.90;55.90;;;;;;5060103;28;20576;-85
2021/04/04 11:23:22;;;;;;;7.90;3.60;;;12.10;55.70;;;;;;5060413;28;20473;-85
2021/04/04 11:25:49;;;;;;;5.33;3.63;;;12.00;55.80;;;;;;5059515;28;20482;-84
2021/04/04 11:28:17;;;;;;;5.13;3.13;;;12.00;55.70;;;;;;5058922;28;20449;-84
2021/04/04 11:30:44;;;;;;;5.40;3.40;;;12.20;56.10;;;;;;5058837;28;20485;-85
2021/04/04 11:33:31;;;;;;;9.70;3.40;;;12.10;55.70;;;;;;5059000;28;20540;-86
2021/04/04 11:36:05;;;;;;;8.00;3.20;;;12.00;55.60;;;;;;5052943;28;20472;-85
2021/04/04 11:38:33;;;;;;;6.20;3.27;;;12.00;55.50;;;;;;5061090;28;20447;-84
2021/04/04 11:41:30;;;;;;;5.67;2.90;;;12.20;55.60;;;;;;5060704;28;20445;-84
2021/04/04 11:44:19;;;;;;;7.90;3.40;;;12.40;55.50;;;;;;5040972;28;20486;-85
2021/04/04 11:46:51;;;;;;;7.00;3.90;;;12.30;55.50;;;;;;5042549;28;20456;-85
2021/04/04 11:49:40;;;;;;;5.63;3.57;;;12.20;55.70;;;;;;5041587;28;20437;-84
2021/04/04 11:52:36;;;;;;;9.20;4.40;;;12.10;56.10;;;;;;5042712;28;20475;-83
2021/04/04 11:55:03;;;;;;;8.90;3.73;;;12.20;56.40;;;;;;5040798;28;20478;-83
2021/04/04 11:57:31;;;;;;;5.70;3.97;;;12.20;56.10;;;;;;5052593;28;20506;-84
2021/04/04 12:00:00;;;;;;;5.90;3.70;;;12.30;56.20;;;;;;5065035;28;20460;-86
2021/04/04 12:02:28;;;;;;;8.00;3.40;;;12.30;56.60;;;;;;5060975;28;20449;-86
2021/04/04 12:05:04;;;;;;;6.40;3.30;;;12.40;56.00;;;;;;5061886;28;20527;-87
2021/04/04 12:07:31;;;;;;;5.83;3.23;;;12.40;56.10;;;;;;5068206;28;20528;-85
2021/04/04 12:09:59;;;;;;;7.47;3.30;;;12.30;56.40;;;;;;5069980;28;20469;-84
2021/04/04 12:12:32;;;;;;;5.80;3.70;;;12.50;56.30;;;;;;5064151;28;20834;-86
2021/04/04 12:15:00;;;;;;;6.53;3.43;;;12.50;55.90;;;;;;5057977;28;21086;-86
2021/04/04 12:17:28;;;;;;;9.33;4.07;;;12.50;55.60;;;;;;5059483;28;20478;-86
2021/04/04 12:19:55;;;;;;;6.73;3.40;;;12.50;55.70;;;;;;5059770;28;20460;-85
2021/04/04 12:22:35;;;;;;;6.90;3.53;;;12.60;55.60;;;;;;5060221;28;20548;-84
2021/04/04 12:25:02;;;;;;;5.77;3.23;;;12.70;55.80;;;;;;5058406;28;20459;-85
2021/04/04 12:27:29;;;;;;;7.40;2.27;;;12.90;55.70;;;;;;5059389;28;20445;-85
2021/04/04 12:29:57;;;;;;;8.00;4.13;;;12.90;55.40;;;;;;5059209;28;20475;-85
2021/04/04 12:32:24;;;;;;;8.77;4.10;;;12.90;55.20;;;;;;5059861;28;20900;-83
2021/04/04 12:34:54;;;;;;;7.93;4.10;;;12.80;55.40;;;;;;5063141;28;20460;-82
2021/04/04 12:37:21;;;;;;;6.83;3.80;;;12.80;54.80;;;;;;5063368;28;20445;-83
2021/04/04 12:39:48;;;;;;;6.57;3.50;;;12.70;54.90;;;;;;5062586;28;20445;-83
2021/04/04 12:42:17;;;;;;;6.83;3.13;;;12.60;54.90;;;;;;5066987;28;20445;-80
2021/04/04 12:44:46;;;;;;;5.00;3.23;;;12.80;54.40;;;;;;5066940;28;20463;-85
2021/04/04 12:47:14;;;;;;;4.10;2.87;;;12.90;54.10;;;;;;5061206;28;20506;-83
2021/04/04 12:49:42;;;;;;;8.57;3.63;;;12.90;54.20;;;;;;5060950;28;20582;-83
2021/04/04 12:52:09;;;;;;;6.53;4.10;;;13.00;54.60;;;;;;5064255;28;20441;-83
2021/04/04 12:54:36;;;;;;;5.30;3.30;;;13.10;54.40;;;;;;5070367;28;20467;-84
2021/04/04 12:57:04;;;;;;;6.70;3.90;;;13.00;54.30;;;;;;5067726;28;20432;-85
2021/04/04 12:59:31;;;;;;;4.83;3.30;;;12.80;54.30;;;;;;5063927;28;20484;-85
2021/04/04 13:01:58;;;;;;;6.57;2.00;;;12.80;54.60;;;;;;5065823;28;20532;-83
2021/04/04 13:04:25;;;;;;;8.37;3.70;;;12.80;54.30;;;;;;5062049;28;20574;-82
2021/04/04 13:06:53;;;;;;;5.47;3.10;;;12.80;54.40;;;;;;5059562;28;20453;-85
2021/04/04 13:09:20;;;;;;;6.43;4.20;;;12.90;54.30;;;;;;5062561;28;20514;-85
2021/04/04 13:11:47;;;;;;;6.97;3.37;;;12.80;54.50;;;;;;5059487;28;20473;-85